LYTV/TIV METAR and TAF weather

Enter ICAO airport designator
Station Type Date Time Source
LYTV METAR 2020/09/20 13:00 UTC NOAA

LYTV 201300Z 25005KT 190V340 CAVOK 27/16 Q1014 NOSIG


Station Type Date Time Source
LYTV Decoded METAR 2020/09/20 13:00 UTC NOAA

Tivat, Serbia and Montenegro (LYTV) 42-24N 018-44E 5M
Sep 20, 2020 - 09:00 AM EDT / 2020.09.20 1300 UTC
Wind: from the WSW (250 degrees) at 6 MPH (5 KT) (direction variable):0
Visibility: greater than 7 mile(s):0
Temperature: 80 F (27 C)
Dew Point: 60 F (16 C)
Relative Humidity: 50%
Pressure (altimeter): 29.94 in. Hg (1014 hPa)
ob: LYTV 201300Z 25005KT 190V340 CAVOK 27/16 Q1014 NOSIG
cycle: 13

Station Type Date Time Source
LYTV TAF 2020/09/20 12:21 UTC NOAA

TAF LYTV 201100Z 2012/2112 23008KT CAVOK TX28/2013Z TN15/2103Z

Example: see airport list